createdAt,value
2017-11-04T00:00:05.059Z,9.47
2017-11-04T00:01:13.911Z,9.43
2017-11-04T00:02:22.762Z,9.39
2017-11-04T00:03:31.816Z,9.42
2017-11-04T00:04:40.670Z,9.38
2017-11-04T00:05:49.523Z,9.36
2017-11-04T00:06:58.370Z,9.29
2017-11-04T00:08:07.216Z,9.35
2017-11-04T00:09:16.112Z,9.32
2017-11-04T00:10:57.020Z,9.26
2017-11-04T00:12:05.864Z,9.23
2017-11-04T00:13:14.709Z,9.28
2017-11-04T00:14:23.947Z,9.23
2017-11-04T00:15:32.794Z,9.17
2017-11-04T00:16:41.643Z,9.17
2017-11-04T00:17:50.492Z,9.17
2017-11-04T00:18:59.344Z,9.17
2017-11-04T00:20:08.396Z,9.04
2017-11-04T00:21:17.238Z,9.08
2017-11-04T00:22:26.085Z,8.95
2017-11-04T00:23:35.279Z,8.92
2017-11-04T00:24:44.126Z,8.98
2017-11-04T00:25:53.273Z,8.87
2017-11-04T00:27:02.115Z,8.81
2017-11-04T00:28:11.309Z,8.91
2017-11-04T00:29:20.159Z,8.89
2017-11-04T00:30:29.003Z,8.84
2017-11-04T00:31:37.850Z,8.77
2017-11-04T00:32:46.700Z,8.77
2017-11-04T00:33:55.544Z,8.74
2017-11-04T00:35:04.392Z,8.62
2017-11-04T00:36:13.588Z,8.63
2017-11-04T00:37:22.635Z,8.59
2017-11-04T00:38:31.486Z,8.58
2017-11-04T00:39:40.331Z,8.62
2017-11-04T00:40:49.529Z,8.59
2017-11-04T00:41:58.374Z,8.47
2017-11-04T00:43:07.318Z,8.59
2017-11-04T00:44:16.162Z,8.58
2017-11-04T00:45:25.006Z,8.53
2017-11-04T00:46:34.197Z,8.56
2017-11-04T00:47:43.042Z,8.48
2017-11-04T00:48:52.289Z,8.45
2017-11-04T00:50:01.138Z,8.41
2017-11-04T00:51:09.989Z,8.41
2017-11-04T00:52:18.833Z,8.36
2017-11-04T00:53:27.780Z,8.44
2017-11-04T00:54:36.776Z,8.38
2017-11-04T00:55:45.620Z,8.33
2017-11-04T00:56:54.465Z,8.4
2017-11-04T00:58:03.313Z,8.34
2017-11-04T00:59:12.162Z,8.29
2017-11-04T01:00:21.308Z,8.23
2017-11-04T01:01:30.157Z,8.23
2017-11-04T01:02:39.006Z,8.2
2017-11-04T01:03:47.853Z,8.19
2017-11-04T01:04:56.702Z,8.12
2017-11-04T01:06:05.747Z,8.18
2017-11-04T01:07:14.595Z,8.16
2017-11-04T01:08:23.441Z,8.11
2017-11-04T01:09:32.320Z,8.11
2017-11-04T01:10:41.131Z,8.11
2017-11-04T01:11:49.980Z,8.07
2017-11-04T01:12:58.835Z,8.07
2017-11-04T01:14:07.700Z,8.07
2017-11-04T01:15:16.517Z,8.08
2017-11-04T01:16:25.365Z,8.07
2017-11-04T01:17:34.211Z,8.04
2017-11-04T01:18:43.061Z,7.98
2017-11-04T01:19:51.911Z,8.01
2017-11-04T01:21:00.755Z,8.01
2017-11-04T01:22:09.971Z,7.93
2017-11-04T01:23:19.410Z,8.02
2017-11-04T01:24:28.255Z,7.87
2017-11-04T01:25:37.101Z,7.85
2017-11-04T01:26:45.945Z,7.87
2017-11-04T01:27:54.789Z,7.92
2017-11-04T01:29:03.883Z,7.87
2017-11-04T01:30:12.730Z,7.92
2017-11-04T01:31:21.580Z,7.93
2017-11-04T01:32:30.420Z,7.79
2017-11-04T01:33:39.265Z,7.82
2017-11-04T01:34:48.262Z,7.69
2017-11-04T01:35:57.105Z,7.79
2017-11-04T01:37:05.951Z,7.69
2017-11-04T01:38:14.799Z,7.69
2017-11-04T01:39:23.645Z,7.67
2017-11-04T01:40:32.491Z,7.8
2017-11-04T01:41:41.334Z,7.77
2017-11-04T01:42:50.554Z,7.74
2017-11-04T01:43:59.370Z,7.69
2017-11-04T01:45:08.216Z,7.74
2017-11-04T01:46:17.587Z,7.75
2017-11-04T01:47:26.780Z,7.68
2017-11-04T01:48:35.627Z,7.64
2017-11-04T01:49:44.482Z,7.71
2017-11-04T01:50:53.329Z,7.71
2017-11-04T01:52:02.318Z,7.67
2017-11-04T01:53:11.172Z,7.72
2017-11-04T01:54:20.013Z,7.68
2017-11-04T01:55:28.856Z,7.72
2017-11-04T01:56:37.701Z,7.67
2017-11-04T01:57:46.647Z,7.63
2017-11-04T01:58:55.493Z,7.71
2017-11-04T02:00:04.339Z,7.68
2017-11-04T02:01:13.184Z,7.67
2017-11-04T02:02:22.032Z,7.68
2017-11-04T02:03:30.927Z,7.69
2017-11-04T02:04:39.772Z,7.68
2017-11-04T02:05:48.615Z,7.71
2017-11-04T02:06:57.458Z,7.71
2017-11-04T02:08:06.303Z,7.68
2017-11-04T02:09:15.148Z,7.63
2017-11-04T02:10:24.345Z,7.55
2017-11-04T02:11:33.191Z,7.61
2017-11-04T02:12:42.037Z,7.58
2017-11-04T02:13:50.881Z,7.61
2017-11-04T02:14:59.972Z,7.58
2017-11-04T02:16:08.819Z,7.64
2017-11-04T02:17:17.663Z,7.6
2017-11-04T02:18:26.508Z,7.61
2017-11-04T02:19:35.354Z,7.61
2017-11-04T02:20:44.399Z,7.55
2017-11-04T02:21:53.243Z,7.55
2017-11-04T02:23:02.091Z,7.57
2017-11-04T02:24:10.939Z,7.61
2017-11-04T02:25:19.782Z,7.57
2017-11-04T02:26:28.624Z,7.52
2017-11-04T02:27:37.469Z,7.53
2017-11-04T02:28:46.312Z,7.55
2017-11-04T02:29:55.508Z,7.53
2017-11-04T02:31:04.359Z,7.57
2017-11-04T02:32:13.403Z,7.46
2017-11-04T02:33:22.253Z,7.57
2017-11-04T02:34:31.448Z,7.57
2017-11-04T02:35:40.296Z,7.45
2017-11-04T02:36:49.142Z,7.53
2017-11-04T02:37:58.138Z,7.5
2017-11-04T02:39:06.983Z,7.45
2017-11-04T02:40:15.832Z,7.45
2017-11-04T02:41:24.676Z,7.43
2017-11-04T02:42:33.881Z,7.39
2017-11-04T02:43:43.230Z,7.46
2017-11-04T02:44:52.423Z,7.42
2017-11-04T02:46:01.270Z,7.45
2017-11-04T02:47:10.115Z,7.43
2017-11-04T02:48:18.965Z,7.49
2017-11-04T02:49:28.206Z,7.46
2017-11-04T02:50:37.050Z,7.4
2017-11-04T02:51:46.262Z,7.45
2017-11-04T02:52:55.110Z,7.43
2017-11-04T02:54:03.954Z,7.42
2017-11-04T02:55:12.799Z,7.32
2017-11-04T02:56:21.645Z,7.28
2017-11-04T02:57:30.492Z,7.32
2017-11-04T02:58:39.340Z,7.31
2017-11-04T02:59:48.191Z,7.3
2017-11-04T03:00:57.479Z,7.35
2017-11-04T03:02:06.686Z,7.3
2017-11-04T03:03:15.532Z,7.31
2017-11-04T03:04:24.377Z,7.27
2017-11-04T03:05:33.571Z,7.25
2017-11-04T03:06:42.512Z,7.31
2017-11-04T03:07:51.355Z,7.3
2017-11-04T03:09:00.202Z,7.34
2017-11-04T03:10:09.394Z,7.3
2017-11-04T03:11:18.239Z,7.3
2017-11-04T03:12:27.235Z,7.31
2017-11-04T03:13:36.080Z,7.34
2017-11-04T03:14:44.932Z,7.21
2017-11-04T03:15:53.776Z,7.21
2017-11-04T03:17:02.628Z,7.21
2017-11-04T03:18:11.467Z,7.2
2017-11-04T03:19:20.315Z,7.23
2017-11-04T03:20:29.156Z,7.2
2017-11-04T03:21:38.001Z,7.16
2017-11-04T03:22:46.848Z,7.17
2017-11-04T03:23:55.692Z,7.21
2017-11-04T03:25:04.537Z,7.17
2017-11-04T03:26:13.384Z,7.17
2017-11-04T03:27:22.226Z,7.24
2017-11-04T03:28:31.071Z,7.1
2017-11-04T03:29:40.061Z,7.2
2017-11-04T03:30:48.914Z,7.2
2017-11-04T03:31:57.750Z,7.1
2017-11-04T03:33:06.596Z,7.09
2017-11-04T03:34:15.439Z,7.09
2017-11-04T03:35:24.441Z,7.09
2017-11-04T03:36:33.287Z,7.02
2017-11-04T03:37:42.129Z,6.99
2017-11-04T03:38:50.981Z,7.02
2017-11-04T03:39:59.820Z,7.06
2017-11-04T03:41:08.818Z,7.07
2017-11-04T03:42:17.664Z,6.99
2017-11-04T03:43:26.512Z,6.99
2017-11-04T03:44:35.362Z,7.02
2017-11-04T03:45:44.551Z,7.05
2017-11-04T03:46:53.445Z,6.99
2017-11-04T03:48:02.292Z,6.99
2017-11-04T03:49:11.138Z,7.07
2017-11-04T03:50:19.984Z,6.97
2017-11-04T03:51:28.828Z,7.02
2017-11-04T03:52:37.974Z,6.95
2017-11-04T03:53:46.818Z,6.97
2017-11-04T03:54:55.666Z,6.95
2017-11-04T03:56:04.510Z,6.94
2017-11-04T03:57:13.354Z,6.88
2017-11-04T03:58:22.349Z,6.8
2017-11-04T03:59:31.561Z,6.92
2017-11-04T04:00:40.408Z,6.94
2017-11-04T04:01:49.346Z,6.87
2017-11-04T04:02:58.193Z,6.92
2017-11-04T04:04:07.142Z,6.88
2017-11-04T04:05:15.987Z,6.94
2017-11-04T04:06:24.883Z,6.94
2017-11-04T04:07:33.730Z,6.91
2017-11-04T04:08:42.575Z,6.89
2017-11-04T04:09:51.721Z,6.88
2017-11-04T04:11:00.932Z,6.98
2017-11-04T04:12:09.782Z,6.88
2017-11-04T04:13:18.967Z,6.88
2017-11-04T04:14:27.812Z,6.87
2017-11-04T04:15:36.656Z,6.87
2017-11-04T04:16:45.502Z,6.89
2017-11-04T04:17:54.348Z,6.85
2017-11-04T04:19:03.192Z,6.94
2017-11-04T04:20:12.039Z,6.89
2017-11-04T04:21:20.885Z,6.87
2017-11-04T04:22:29.735Z,6.88
2017-11-04T04:23:38.579Z,6.84
2017-11-04T04:24:47.424Z,6.85
2017-11-04T04:25:56.274Z,6.8
2017-11-04T04:27:05.123Z,6.74
2017-11-04T04:28:13.962Z,6.79
2017-11-04T04:29:22.810Z,6.79
2017-11-04T04:30:31.652Z,6.73
2017-11-04T04:31:40.494Z,6.8
2017-11-04T04:32:49.595Z,6.77
2017-11-04T04:33:58.438Z,6.69
2017-11-04T04:35:07.284Z,6.66
2017-11-04T04:36:16.132Z,6.7
2017-11-04T04:37:24.976Z,6.7
2017-11-04T04:38:34.022Z,6.73
2017-11-04T04:39:42.871Z,6.71
2017-11-04T04:40:51.710Z,6.69
2017-11-04T04:42:00.555Z,6.74
2017-11-04T04:43:09.399Z,6.74
2017-11-04T04:44:18.294Z,6.74
2017-11-04T04:45:27.143Z,6.74
2017-11-04T04:46:35.992Z,6.79
2017-11-04T04:47:44.835Z,6.81
2017-11-04T04:48:53.676Z,6.74
2017-11-04T04:50:02.928Z,6.8
2017-11-04T04:51:11.777Z,6.73
2017-11-04T04:52:20.621Z,6.79
2017-11-04T04:53:29.468Z,6.73
2017-11-04T04:54:38.316Z,6.76
2017-11-04T04:55:47.158Z,6.77
2017-11-04T04:56:56.348Z,6.8
2017-11-04T04:58:05.192Z,6.8
2017-11-04T04:59:14.043Z,6.76
2017-11-04T05:00:22.888Z,6.73
2017-11-04T05:01:31.892Z,6.73
2017-11-04T05:02:40.729Z,6.84
2017-11-04T05:03:49.582Z,6.85
2017-11-04T05:04:58.448Z,6.76
2017-11-04T05:06:07.266Z,6.74
2017-11-04T05:07:16.113Z,6.74
2017-11-04T05:08:24.953Z,6.69
2017-11-04T05:09:33.799Z,6.84
2017-11-04T05:10:42.640Z,6.76
2017-11-04T05:11:51.484Z,6.67
2017-11-04T05:13:00.578Z,6.67
2017-11-04T05:14:09.421Z,6.69
2017-11-04T05:15:18.612Z,6.71
2017-11-04T05:16:27.454Z,6.71
2017-11-04T05:17:36.299Z,6.76
2017-11-04T05:18:45.248Z,6.7
2017-11-04T05:19:54.096Z,6.71
2017-11-04T05:21:02.943Z,6.76
2017-11-04T05:22:11.788Z,6.7
2017-11-04T05:23:20.633Z,6.69
2017-11-04T05:24:29.632Z,6.7
2017-11-04T05:25:38.478Z,6.62
2017-11-04T05:26:47.318Z,6.71
2017-11-04T05:27:56.162Z,6.69
2017-11-04T05:29:05.005Z,6.64
2017-11-04T05:30:14.397Z,6.71
2017-11-04T05:31:23.244Z,6.69
2017-11-04T05:32:32.089Z,6.73
2017-11-04T05:33:40.937Z,6.7
2017-11-04T05:34:49.782Z,6.74
2017-11-04T05:35:58.932Z,6.66
2017-11-04T05:37:07.774Z,6.71
2017-11-04T05:38:16.620Z,6.7
2017-11-04T05:39:25.466Z,6.7
2017-11-04T05:40:34.310Z,6.77
2017-11-04T05:41:43.458Z,6.73
2017-11-04T05:42:52.649Z,6.77
2017-11-04T05:44:01.493Z,6.64
2017-11-04T05:45:10.335Z,6.71
2017-11-04T05:46:19.183Z,6.76
2017-11-04T05:47:28.230Z,6.67
2017-11-04T05:48:37.072Z,6.66
2017-11-04T05:49:45.921Z,6.61
2017-11-04T05:50:54.765Z,6.64
2017-11-04T05:52:03.613Z,6.73
2017-11-04T05:53:12.513Z,6.7
2017-11-04T05:54:21.351Z,6.66
2017-11-04T05:55:30.195Z,6.59
2017-11-04T05:56:39.043Z,6.59
2017-11-04T05:57:47.885Z,6.61
2017-11-04T05:58:57.030Z,6.54
2017-11-04T06:00:05.881Z,6.62
2017-11-04T06:01:14.935Z,6.58
2017-11-04T06:02:23.788Z,6.49
2017-11-04T06:03:32.634Z,6.54
2017-11-04T06:04:41.831Z,6.54
2017-11-04T06:05:50.677Z,6.55
2017-11-04T06:06:59.525Z,6.59
2017-11-04T06:08:08.372Z,6.54
2017-11-04T06:09:17.216Z,6.56
2017-11-04T06:10:26.062Z,6.51
2017-11-04T06:11:34.907Z,6.54
2017-11-04T06:12:43.752Z,6.51
2017-11-04T06:13:52.598Z,6.49
2017-11-04T06:15:01.441Z,6.54
2017-11-04T06:16:10.337Z,6.61
2017-11-04T06:17:19.185Z,6.52
2017-11-04T06:18:28.031Z,6.49
2017-11-04T06:19:36.877Z,6.61
2017-11-04T06:20:45.723Z,6.56
2017-11-04T06:21:54.723Z,6.54
2017-11-04T06:23:03.570Z,6.49
2017-11-04T06:24:12.415Z,6.54
2017-11-04T06:25:21.260Z,6.52
2017-11-04T06:26:30.106Z,6.56
2017-11-04T06:27:38.955Z,6.52
2017-11-04T06:28:48.145Z,6.48
2017-11-04T06:29:56.990Z,6.52
2017-11-04T06:31:05.833Z,6.54
2017-11-04T06:32:14.682Z,6.49
2017-11-04T06:33:23.783Z,6.43
2017-11-04T06:34:32.627Z,6.38
2017-11-04T06:35:41.472Z,6.43
2017-11-04T06:36:50.319Z,6.46
2017-11-04T06:37:59.173Z,6.46
2017-11-04T06:39:08.114Z,6.44
2017-11-04T06:40:16.989Z,6.44
2017-11-04T06:41:25.832Z,6.43
2017-11-04T06:42:34.707Z,6.36
2017-11-04T06:43:43.551Z,6.4
2017-11-04T06:44:52.395Z,6.4
2017-11-04T06:46:01.240Z,6.4
2017-11-04T06:47:10.433Z,6.38
2017-11-04T06:48:19.280Z,6.41
2017-11-04T06:49:28.227Z,6.37
2017-11-04T06:50:37.075Z,6.37
2017-11-04T06:51:45.926Z,6.4
2017-11-04T06:52:54.770Z,6.37
2017-11-04T06:54:03.982Z,6.34
2017-11-04T06:55:12.907Z,6.4
2017-11-04T06:56:21.752Z,6.34
2017-11-04T06:57:30.599Z,6.36
2017-11-04T06:58:39.800Z,6.34
2017-11-04T06:59:48.641Z,6.43
2017-11-04T07:00:57.540Z,6.43
2017-11-04T07:02:06.386Z,6.37
2017-11-04T07:03:15.228Z,6.33
2017-11-04T07:04:24.076Z,6.33
2017-11-04T07:05:32.933Z,6.31
2017-11-04T07:06:41.822Z,6.38
2017-11-04T07:07:50.667Z,6.27
2017-11-04T07:08:59.509Z,6.43
2017-11-04T07:10:08.806Z,6.4
2017-11-04T07:11:17.653Z,6.38
2017-11-04T07:12:26.895Z,6.38
2017-11-04T07:13:35.743Z,6.3
2017-11-04T07:14:44.586Z,6.36
2017-11-04T07:15:53.431Z,6.37
2017-11-04T07:17:02.285Z,6.41
2017-11-04T07:18:11.275Z,6.41
2017-11-04T07:19:20.129Z,6.43
2017-11-04T07:20:28.971Z,6.46
2017-11-04T07:21:37.818Z,6.43
2017-11-04T07:22:46.667Z,6.36
2017-11-04T07:23:55.814Z,6.44
2017-11-04T07:25:04.661Z,6.52
2017-11-04T07:26:13.507Z,6.43
2017-11-04T07:27:22.348Z,6.56
2017-11-04T07:28:31.194Z,6.52
2017-11-04T07:29:40.090Z,6.49
2017-11-04T07:30:49.391Z,6.61
2017-11-04T07:31:58.236Z,6.52
2017-11-04T07:33:07.126Z,6.62
2017-11-04T07:34:15.974Z,6.62
2017-11-04T07:35:24.992Z,6.69
2017-11-04T07:36:33.841Z,6.73
2017-11-04T07:37:42.703Z,6.76
2017-11-04T07:38:51.543Z,6.66
2017-11-04T07:40:00.409Z,6.79
2017-11-04T07:41:09.562Z,6.76
2017-11-04T07:42:18.402Z,6.84
2017-11-04T07:43:27.248Z,6.79
2017-11-04T07:44:36.099Z,6.84
2017-11-04T07:45:44.942Z,6.88
2017-11-04T07:46:53.788Z,6.85
2017-11-04T07:48:02.635Z,6.92
2017-11-04T07:49:11.479Z,6.92
2017-11-04T07:50:20.340Z,6.94
2017-11-04T07:51:29.194Z,6.94
2017-11-04T07:52:38.042Z,6.94
2017-11-04T07:53:46.891Z,6.94
2017-11-04T07:54:55.734Z,6.88
2017-11-04T07:56:04.942Z,6.88
2017-11-04T07:57:13.792Z,6.95
2017-11-04T07:58:22.735Z,6.91
2017-11-04T07:59:31.582Z,7.03
2017-11-04T08:00:40.433Z,6.99
2017-11-04T08:01:49.277Z,7.05
2017-11-04T08:02:58.129Z,7.02
2017-11-04T08:04:07.123Z,7.03
2017-11-04T08:05:15.974Z,7.09
2017-11-04T08:06:24.818Z,7.13
2017-11-04T08:07:33.670Z,7.2
2017-11-04T08:08:42.515Z,7.23
2017-11-04T08:09:51.461Z,7.17
2017-11-04T08:11:00.310Z,7.16
2017-11-04T08:12:09.514Z,7.25
2017-11-04T08:13:18.362Z,7.3
2017-11-04T08:14:27.208Z,7.13
2017-11-04T08:15:36.206Z,7.27
2017-11-04T08:16:45.054Z,7.31
2017-11-04T08:17:53.901Z,7.34
2017-11-04T08:19:02.749Z,7.28
2017-11-04T08:20:11.948Z,7.27
2017-11-04T08:21:21.050Z,7.32
2017-11-04T08:22:30.238Z,7.31
2017-11-04T08:23:39.092Z,7.32
2017-11-04T08:24:47.935Z,7.34
2017-11-04T08:25:56.783Z,7.45
2017-11-04T08:27:05.929Z,7.37
2017-11-04T08:28:14.779Z,7.49
2017-11-04T08:29:23.628Z,7.46
2017-11-04T08:30:32.477Z,7.42
2017-11-04T08:31:41.323Z,7.32
2017-11-04T08:32:50.220Z,7.34
2017-11-04T08:33:59.067Z,7.46
2017-11-04T08:35:07.917Z,7.45
2017-11-04T08:36:16.763Z,7.49
2017-11-04T08:37:25.615Z,7.43
2017-11-04T08:38:34.609Z,7.49
2017-11-04T08:39:43.460Z,7.49
2017-11-04T08:40:52.309Z,7.53
2017-11-04T08:42:01.157Z,7.6
2017-11-04T08:43:10.011Z,7.61
2017-11-04T08:44:19.009Z,7.68
2017-11-04T08:45:27.859Z,7.68
2017-11-04T08:46:36.708Z,7.68
2017-11-04T08:47:45.917Z,7.67
2017-11-04T08:48:54.763Z,7.8
2017-11-04T08:50:03.612Z,7.82
2017-11-04T08:51:12.454Z,7.69
2017-11-04T08:52:21.300Z,7.72
2017-11-04T08:53:30.145Z,7.74
2017-11-04T08:54:38.987Z,7.83
2017-11-04T08:55:47.838Z,7.82
2017-11-04T08:56:57.029Z,7.8
2017-11-04T08:58:05.876Z,7.83
2017-11-04T08:59:14.723Z,7.89
2017-11-04T09:00:23.571Z,7.87
2017-11-04T09:01:32.564Z,7.9
2017-11-04T09:02:41.414Z,7.89
2017-11-04T09:03:50.261Z,7.87
2017-11-04T09:04:59.110Z,7.89
2017-11-04T09:06:07.957Z,7.87
2017-11-04T09:07:17.208Z,7.93
2017-11-04T09:08:26.398Z,7.95
2017-11-04T09:09:35.247Z,8
2017-11-04T09:10:44.097Z,8.1
2017-11-04T09:11:52.944Z,8.05
2017-11-04T09:13:01.894Z,8.08
2017-11-04T09:14:10.740Z,8.1
2017-11-04T09:15:19.588Z,8.1
2017-11-04T09:16:28.441Z,8.07
2017-11-04T09:17:37.632Z,8.02
2017-11-04T09:18:46.582Z,8.01
2017-11-04T09:19:55.432Z,7.98
2017-11-04T09:21:04.283Z,8.07
2017-11-04T09:22:13.130Z,8.02
2017-11-04T09:23:21.978Z,8.12
2017-11-04T09:24:31.029Z,8.2
2017-11-04T09:25:39.880Z,8.16
2017-11-04T09:26:49.073Z,8.23
2017-11-04T09:27:58.265Z,8.18
2017-11-04T09:29:07.119Z,8.22
2017-11-04T09:30:16.167Z,8.3
2017-11-04T09:31:25.018Z,8.4
2017-11-04T09:32:33.865Z,8.36
2017-11-04T09:33:42.715Z,8.38
2017-11-04T09:34:51.563Z,8.47
2017-11-04T09:36:00.562Z,8.52
2017-11-04T09:37:09.413Z,8.43
2017-11-04T09:38:18.310Z,8.53
2017-11-04T09:39:27.161Z,8.58
2017-11-04T09:40:36.010Z,8.58
2017-11-04T09:41:44.913Z,8.65
2017-11-04T09:42:53.762Z,8.76
2017-11-04T09:44:02.611Z,8.73
2017-11-04T09:45:11.478Z,8.56
2017-11-04T09:46:20.316Z,8.63
2017-11-04T09:47:29.469Z,8.59
2017-11-04T09:48:38.318Z,8.62
2017-11-04T09:49:47.170Z,8.63
2017-11-04T09:50:56.019Z,8.74
2017-11-04T09:52:05.215Z,8.77
2017-11-04T09:53:14.165Z,8.77
2017-11-04T09:54:23.012Z,8.8
2017-11-04T09:55:31.861Z,8.76
2017-11-04T09:56:40.708Z,8.77
2017-11-04T09:57:49.560Z,8.76
2017-11-04T09:58:58.656Z,8.77
2017-11-04T10:00:07.514Z,8.81
2017-11-04T10:01:16.709Z,8.76
2017-11-04T10:02:25.557Z,8.74
2017-11-04T10:03:34.405Z,8.74
2017-11-04T10:04:43.252Z,8.77
2017-11-04T10:05:52.098Z,8.8
2017-11-04T10:07:00.949Z,8.87
2017-11-04T10:08:09.797Z,8.86
2017-11-04T10:09:18.643Z,8.87
2017-11-04T10:10:27.542Z,8.86
2017-11-04T10:11:36.394Z,8.84
2017-11-04T10:12:45.246Z,8.84
2017-11-04T10:13:54.093Z,8.89
2017-11-04T10:15:02.939Z,8.86
2017-11-04T10:16:11.835Z,8.87
2017-11-04T10:17:21.034Z,8.92
2017-11-04T10:18:29.878Z,8.95
2017-11-04T10:19:38.727Z,8.86
2017-11-04T10:20:47.577Z,9.02
2017-11-04T10:21:56.475Z,9.11
2017-11-04T10:23:05.337Z,9.01
2017-11-04T10:24:14.184Z,9.05
2017-11-04T10:25:23.041Z,9.11
2017-11-04T10:26:31.893Z,9.28
2017-11-04T10:27:41.354Z,9.23
2017-11-04T10:28:50.205Z,9.2
2017-11-04T10:29:59.057Z,9.24
2017-11-04T10:31:07.906Z,9.23
2017-11-04T10:32:16.759Z,9.23
2017-11-04T10:33:25.809Z,9.21
2017-11-04T10:34:34.660Z,9.28
2017-11-04T10:35:43.512Z,9.32
2017-11-04T10:36:52.363Z,9.39
2017-11-04T10:38:01.217Z,9.4
2017-11-04T10:39:10.167Z,9.42
2017-11-04T10:40:19.017Z,9.5
2017-11-04T10:41:27.868Z,9.51
2017-11-04T10:42:36.717Z,9.51
2017-11-04T10:43:45.911Z,9.66
2017-11-04T10:44:54.815Z,9.65
2017-11-04T10:46:03.671Z,9.71
2017-11-04T10:47:12.521Z,9.79
2017-11-04T10:48:21.368Z,9.91
2017-11-04T10:49:30.217Z,9.81
2017-11-04T10:50:39.268Z,9.87
2017-11-04T10:51:48.461Z,9.99
2017-11-04T10:52:57.312Z,10.09
2017-11-04T10:54:06.161Z,10.23
2017-11-04T10:55:15.011Z,10.2
2017-11-04T10:56:23.912Z,10.4
2017-11-04T10:57:33.107Z,10.45
2017-11-04T10:58:41.957Z,10.42
2017-11-04T10:59:51.161Z,10.41
2017-11-04T11:01:00.010Z,10.4
2017-11-04T11:02:08.961Z,10.4
2017-11-04T11:03:17.812Z,10.36
2017-11-04T11:04:26.661Z,10.41
2017-11-04T11:05:35.516Z,10.34
2017-11-04T11:06:44.381Z,10.33
2017-11-04T11:07:53.433Z,10.33
2017-11-04T11:09:02.286Z,10.29
2017-11-04T11:10:11.487Z,10.32
2017-11-04T11:11:20.339Z,10.34
2017-11-04T11:12:29.192Z,10.41
2017-11-04T11:13:38.095Z,10.33
2017-11-04T11:14:46.944Z,10.4
2017-11-04T11:15:55.797Z,10.44
2017-11-04T11:17:04.989Z,10.59
2017-11-04T11:18:13.839Z,10.63
2017-11-04T11:19:22.735Z,10.66
2017-11-04T11:20:31.588Z,10.61
2017-11-04T11:21:40.443Z,10.76
2017-11-04T11:22:49.292Z,10.82
2017-11-04T11:23:58.142Z,10.91
2017-11-04T11:25:07.495Z,10.88
2017-11-04T11:26:16.347Z,10.89
2017-11-04T11:27:25.200Z,10.84
2017-11-04T11:28:34.158Z,10.91
2017-11-04T11:29:43.002Z,10.91
2017-11-04T11:30:51.953Z,10.99
2017-11-04T11:32:00.815Z,10.97
2017-11-04T11:33:10.007Z,11.03
2017-11-04T11:34:18.857Z,11.06
2017-11-04T11:35:27.712Z,11.09
2017-11-04T11:36:36.816Z,11.11
2017-11-04T11:37:45.663Z,11.07
2017-11-04T11:38:54.512Z,11.06
2017-11-04T11:40:03.362Z,11.17
2017-11-04T11:41:12.211Z,11.09
2017-11-04T11:42:21.164Z,11.18
2017-11-04T11:43:30.113Z,11.1
2017-11-04T11:44:38.963Z,11.17
2017-11-04T11:45:47.813Z,11.25
2017-11-04T11:46:56.663Z,11.15
2017-11-04T11:48:05.817Z,11.1
2017-11-04T11:49:14.668Z,11.17
2017-11-04T11:50:23.521Z,11.19
2017-11-04T11:51:32.372Z,11.27
2017-11-04T11:52:41.222Z,11.32
2017-11-04T11:53:50.323Z,11.18
2017-11-04T11:54:59.175Z,11.29
2017-11-04T11:56:08.026Z,11.24
2017-11-04T11:57:16.876Z,11.28
2017-11-04T11:58:25.726Z,11.25
2017-11-04T11:59:34.877Z,11.29
2017-11-04T12:00:43.731Z,11.32
2017-11-04T12:01:52.582Z,11.28
2017-11-04T12:03:01.433Z,11.36
2017-11-04T12:04:10.282Z,11.43
2017-11-04T12:05:19.446Z,11.46
2017-11-04T12:06:28.291Z,11.51
2017-11-04T12:07:37.142Z,11.49
2017-11-04T12:08:45.991Z,11.55
2017-11-04T12:09:54.843Z,11.6
2017-11-04T12:11:04.047Z,11.54
2017-11-04T12:12:13.252Z,11.55
2017-11-04T12:13:22.104Z,11.6
2017-11-04T12:14:30.952Z,11.72
2017-11-04T12:15:39.801Z,11.72
2017-11-04T12:16:48.752Z,11.73
2017-11-04T12:17:57.949Z,11.72
2017-11-04T12:19:06.801Z,11.67
2017-11-04T12:20:15.654Z,11.67
2017-11-04T12:21:24.506Z,11.61
2017-11-04T12:22:33.364Z,11.72
2017-11-04T12:23:42.208Z,11.72
2017-11-04T12:24:51.060Z,11.75
2017-11-04T12:25:59.909Z,11.82
2017-11-04T12:27:08.759Z,11.75
2017-11-04T12:28:17.861Z,11.76
2017-11-04T12:29:26.713Z,11.83
2017-11-04T12:30:35.567Z,11.95
2017-11-04T12:31:44.764Z,12.02
2017-11-04T12:32:53.615Z,12.07
2017-11-04T12:34:02.617Z,12.2
2017-11-04T12:35:11.470Z,12.19
2017-11-04T12:36:20.323Z,12.21
2017-11-04T12:37:29.176Z,12.29
2017-11-04T12:38:38.027Z,12.37
2017-11-04T12:39:46.928Z,12.38
2017-11-04T12:40:55.782Z,12.53
2017-11-04T12:42:04.636Z,12.52
2017-11-04T12:43:13.489Z,12.53
2017-11-04T12:44:22.340Z,12.47
2017-11-04T12:45:31.248Z,12.39
2017-11-04T12:46:40.095Z,12.41
2017-11-04T12:47:48.947Z,12.46
2017-11-04T12:48:57.803Z,12.42
2017-11-04T12:50:06.653Z,12.52
2017-11-04T12:51:15.607Z,12.42
2017-11-04T12:52:24.458Z,12.49
2017-11-04T12:53:33.309Z,12.41
2017-11-04T12:54:42.160Z,12.39
2017-11-04T12:55:51.014Z,12.38
2017-11-04T12:56:59.865Z,12.37
2017-11-04T12:58:08.719Z,12.37
2017-11-04T12:59:17.570Z,12.31
2017-11-04T13:00:26.423Z,12.34
2017-11-04T13:01:35.297Z,12.34
2017-11-04T13:02:44.152Z,12.35
2017-11-04T13:03:52.999Z,12.39
2017-11-04T13:05:01.853Z,12.39
2017-11-04T13:06:10.706Z,12.39
2017-11-04T13:07:19.607Z,12.46
2017-11-04T13:08:28.456Z,12.45
2017-11-04T13:09:37.308Z,12.41
2017-11-04T13:10:46.314Z,12.38
2017-11-04T13:11:55.159Z,12.42
2017-11-04T13:13:04.352Z,12.41
2017-11-04T13:14:13.203Z,12.45
2017-11-04T13:15:22.056Z,12.45
2017-11-04T13:16:30.958Z,12.35
2017-11-04T13:17:39.811Z,12.39
2017-11-04T13:18:48.667Z,12.41
2017-11-04T13:19:58.211Z,12.38
2017-11-04T13:21:07.064Z,12.39
2017-11-04T13:22:16.016Z,12.39
2017-11-04T13:23:24.872Z,12.39
2017-11-04T13:24:33.726Z,12.34
2017-11-04T13:25:42.569Z,12.39
2017-11-04T13:26:51.420Z,12.39
2017-11-04T13:28:00.571Z,12.39
2017-11-04T13:29:09.427Z,12.42
2017-11-04T13:30:18.280Z,12.21
2017-11-04T13:31:27.136Z,12.23
2017-11-04T13:32:35.993Z,12.34
2017-11-04T13:33:45.043Z,12.27
2017-11-04T13:34:53.899Z,12.29
2017-11-04T13:36:02.752Z,12.31
2017-11-04T13:37:11.609Z,12.31
2017-11-04T13:38:20.512Z,12.39
2017-11-04T13:39:29.515Z,12.38
2017-11-04T13:40:38.365Z,12.38
2017-11-04T13:41:47.216Z,12.45
2017-11-04T13:42:56.071Z,12.42
2017-11-04T13:44:04.922Z,12.5
2017-11-04T13:45:13.878Z,12.59
2017-11-04T13:46:22.732Z,12.56
2017-11-04T13:47:31.583Z,12.59
2017-11-04T13:48:40.436Z,12.6
2017-11-04T13:49:49.289Z,12.53
2017-11-04T13:50:58.244Z,12.56
2017-11-04T13:52:07.104Z,12.53
2017-11-04T13:53:15.952Z,12.52
2017-11-04T13:54:25.157Z,12.54
2017-11-04T13:55:34.000Z,12.5
2017-11-04T13:56:43.001Z,12.57
2017-11-04T13:57:52.197Z,12.53
2017-11-04T13:59:01.050Z,12.6
2017-11-04T14:00:09.904Z,12.59
2017-11-04T14:01:19.105Z,12.54
2017-11-04T14:02:28.105Z,12.54
2017-11-04T14:03:36.960Z,12.56
2017-11-04T14:04:45.814Z,12.56
2017-11-04T14:05:54.666Z,12.65
2017-11-04T14:07:03.522Z,12.68
2017-11-04T14:08:12.521Z,12.5
2017-11-04T14:09:21.370Z,12.56
2017-11-04T14:10:30.580Z,12.5
2017-11-04T14:11:39.428Z,12.64
2017-11-04T14:12:48.282Z,12.56
2017-11-04T14:13:57.334Z,12.5
2017-11-04T14:15:06.188Z,12.52
2017-11-04T14:16:15.396Z,12.57
2017-11-04T14:17:24.249Z,12.68
2017-11-04T14:18:33.107Z,12.7
2017-11-04T14:19:41.960Z,12.72
2017-11-04T14:20:50.812Z,12.68
2017-11-04T14:21:59.664Z,12.53
2017-11-04T14:23:08.521Z,12.57
2017-11-04T14:24:17.373Z,12.57
2017-11-04T14:25:26.226Z,12.59
2017-11-04T14:26:35.077Z,12.54
2017-11-04T14:27:43.930Z,12.49
2017-11-04T14:28:52.781Z,12.54
2017-11-04T14:30:01.985Z,12.54
2017-11-04T14:31:10.840Z,12.54
2017-11-04T14:32:19.694Z,12.5
2017-11-04T14:33:28.547Z,12.52
2017-11-04T14:34:37.409Z,12.57
2017-11-04T14:35:46.261Z,12.67
2017-11-04T14:36:55.111Z,12.7
2017-11-04T14:38:03.967Z,12.5
2017-11-04T14:39:12.819Z,12.7
2017-11-04T14:40:21.676Z,12.65
2017-11-04T14:41:30.527Z,12.57
2017-11-04T14:42:39.742Z,12.56
2017-11-04T14:43:48.593Z,12.52
2017-11-04T14:44:57.608Z,12.47
2017-11-04T14:46:06.636Z,12.53
2017-11-04T14:47:15.835Z,12.56
2017-11-04T14:48:24.688Z,12.49
2017-11-04T14:49:33.539Z,12.47
2017-11-04T14:50:42.442Z,12.52
2017-11-04T14:51:51.295Z,12.49
2017-11-04T14:53:00.149Z,12.45
2017-11-04T14:54:08.999Z,12.37
2017-11-04T14:55:17.853Z,12.42
2017-11-04T14:56:26.856Z,12.39
2017-11-04T14:57:35.709Z,12.32
2017-11-04T14:58:44.563Z,12.42
2017-11-04T14:59:53.415Z,12.35
2017-11-04T15:01:02.268Z,12.29
2017-11-04T15:02:11.124Z,12.27
2017-11-04T15:03:19.979Z,12.09
2017-11-04T15:04:28.831Z,12.13
2017-11-04T15:05:37.680Z,12.13
2017-11-04T15:06:46.529Z,12.12
2017-11-04T15:07:55.433Z,12.1
2017-11-04T15:09:04.296Z,12.07
2017-11-04T15:10:13.146Z,12.05
2017-11-04T15:11:22.007Z,12.1